Terminal Aerodrome Forecast
Issued by NWS

Home | Current Version | Previous Version | Text Only | Print | Product List | Glossary On
Versions: 1 2 3 4 5 6 7 8 9 10 11 12 13 14 15 16
752
FTUS45 KTFX 221132
TAFLWT
TAF
KLWT 221132Z 2212/2312 VRB05KT P6SM BKN080
     FM221400 32010KT P6SM FEW080
     FM221700 33015G25KT P6SM SCT100
     FM222200 33015G30KT P6SM BKN080
     FM230400 33010KT P6SM BKN070=

USA.gov is the U.S. government's official web portal to all federal, state and local government web resources and services.